sensor_id;sensor_type;location;lat;lon;timestamp;pressure;altitude;pressure_sealevel;temperature;humidity
33185;BME280;19550;42.872;25.494;2022-07-29T00:00:07;96469.50;;;17.55;100.00
33185;BME280;19550;42.872;25.494;2022-07-29T00:02:35;96480.16;;;17.49;100.00
33185;BME280;19550;42.872;25.494;2022-07-29T00:05:03;96475.81;;;17.52;100.00
33185;BME280;19550;42.872;25.494;2022-07-29T00:07:31;96477.34;;;17.49;100.00
33185;BME280;19550;42.872;25.494;2022-07-29T00:09:59;96478.16;;;17.49;100.00
33185;BME280;19550;42.872;25.494;2022-07-29T00:12:26;96471.75;;;17.49;100.00
33185;BME280;19550;42.872;25.494;2022-07-29T00:14:54;96469.97;;;17.41;100.00
33185;BME280;19550;42.872;25.494;2022-07-29T00:17:21;96470.50;;;17.31;100.00
33185;BME280;19550;42.872;25.494;2022-07-29T00:19:48;96476.38;;;17.26;100.00
33185;BME280;19550;42.872;25.494;2022-07-29T00:22:15;96479.53;;;17.24;100.00
33185;BME280;19550;42.872;25.494;2022-07-29T00:24:42;96479.81;;;17.19;100.00
33185;BME280;19550;42.872;25.494;2022-07-29T00:27:11;96471.88;;;17.21;100.00
33185;BME280;19550;42.872;25.494;2022-07-29T00:29:38;96479.47;;;17.21;100.00
33185;BME280;19550;42.872;25.494;2022-07-29T00:32:05;96480.28;;;17.21;100.00
33185;BME280;19550;42.872;25.494;2022-07-29T00:34:32;96480.72;;;17.23;100.00
33185;BME280;19550;42.872;25.494;2022-07-29T00:37:17;96479.81;;;17.19;100.00
33185;BME280;19550;42.872;25.494;2022-07-29T00:39:44;96475.31;;;17.15;100.00
33185;BME280;19550;42.872;25.494;2022-07-29T00:42:12;96478.19;;;17.18;100.00
33185;BME280;19550;42.872;25.494;2022-07-29T00:44:40;96468.78;;;17.11;100.00
33185;BME280;19550;42.872;25.494;2022-07-29T00:47:08;96470.59;;;17.03;100.00
33185;BME280;19550;42.872;25.494;2022-07-29T00:49:35;96469.78;;;17.02;100.00
33185;BME280;19550;42.872;25.494;2022-07-29T00:52:02;96468.31;;;17.08;100.00
33185;BME280;19550;42.872;25.494;2022-07-29T00:54:30;96467.88;;;17.22;100.00
33185;BME280;19550;42.872;25.494;2022-07-29T00:56:58;96458.75;;;17.25;100.00
33185;BME280;19550;42.872;25.494;2022-07-29T00:59:27;96453.31;;;17.17;100.00
33185;BME280;19550;42.872;25.494;2022-07-29T01:01:54;96459.41;;;17.19;100.00
33185;BME280;19550;42.872;25.494;2022-07-29T01:04:21;96456.59;;;17.19;100.00
33185;BME280;19550;42.872;25.494;2022-07-29T01:06:49;96461.19;;;17.11;100.00
33185;BME280;19550;42.872;25.494;2022-07-29T01:09:17;96460.50;;;17.14;100.00
33185;BME280;19550;42.872;25.494;2022-07-29T01:11:46;96460.84;;;17.13;100.00
33185;BME280;19550;42.872;25.494;2022-07-29T01:14:14;96461.13;;;17.07;100.00
33185;BME280;19550;42.872;25.494;2022-07-29T01:16:48;96460.56;;;17.02;100.00
33185;BME280;19550;42.872;25.494;2022-07-29T01:19:32;96465.91;;;17.07;100.00
33185;BME280;19550;42.872;25.494;2022-07-29T01:22:13;96463.91;;;17.07;100.00
33185;BME280;19550;42.872;25.494;2022-07-29T01:24:57;96465.38;;;17.01;100.00
33185;BME280;19550;42.872;25.494;2022-07-29T01:27:41;96460.81;;;16.97;100.00
33185;BME280;19550;42.872;25.494;2022-07-29T01:30:11;96452.25;;;16.90;100.00
33185;BME280;19550;42.872;25.494;2022-07-29T01:32:39;96459.41;;;16.87;100.00
33185;BME280;19550;42.872;25.494;2022-07-29T01:35:12;96455.22;;;16.81;100.00
33185;BME280;19550;42.872;25.494;2022-07-29T01:37:45;96456.41;;;16.80;100.00
33185;BME280;19550;42.872;25.494;2022-07-29T01:40:19;96462.69;;;16.77;100.00
33185;BME280;19550;42.872;25.494;2022-07-29T01:42:50;96451.31;;;16.70;100.00
33185;BME280;19550;42.872;25.494;2022-07-29T01:45:23;96459.28;;;16.68;100.00
33185;BME280;19550;42.872;25.494;2022-07-29T01:47:58;96458.06;;;16.69;100.00
33185;BME280;19550;42.872;25.494;2022-07-29T01:50:31;96467.09;;;16.62;100.00
33185;BME280;19550;42.872;25.494;2022-07-29T01:53:02;96465.13;;;16.63;100.00
33185;BME280;19550;42.872;25.494;2022-07-29T01:55:31;96465.31;;;16.70;100.00
33185;BME280;19550;42.872;25.494;2022-07-29T01:58:03;96462.50;;;16.70;100.00
33185;BME280;19550;42.872;25.494;2022-07-29T02:00:33;96465.31;;;16.70;100.00
33185;BME280;19550;42.872;25.494;2022-07-29T02:03:05;96463.59;;;16.65;100.00
33185;BME280;19550;42.872;25.494;2022-07-29T02:05:35;96463.06;;;16.60;100.00
33185;BME280;19550;42.872;25.494;2022-07-29T02:08:05;96457.28;;;16.68;100.00
33185;BME280;19550;42.872;25.494;2022-07-29T02:10:34;96456.22;;;16.73;100.00
33185;BME280;19550;42.872;25.494;2022-07-29T02:13:03;96454.56;;;16.72;100.00
33185;BME280;19550;42.872;25.494;2022-07-29T02:15:33;96447.81;;;16.73;100.00
33185;BME280;19550;42.872;25.494;2022-07-29T02:18:04;96438.88;;;16.67;100.00
33185;BME280;19550;42.872;25.494;2022-07-29T02:20:32;96450.31;;;16.62;100.00
33185;BME280;19550;42.872;25.494;2022-07-29T02:23:00;96446.94;;;16.57;100.00
33185;BME280;19550;42.872;25.494;2022-07-29T02:25:29;96448.00;;;16.52;100.00
33185;BME280;19550;42.872;25.494;2022-07-29T02:27:57;96441.34;;;16.57;100.00
33185;BME280;19550;42.872;25.494;2022-07-29T02:30:27;96441.34;;;16.57;100.00
33185;BME280;19550;42.872;25.494;2022-07-29T02:32:57;96447.66;;;16.54;100.00
33185;BME280;19550;42.872;25.494;2022-07-29T02:35:25;96447.28;;;16.55;100.00
33185;BME280;19550;42.872;25.494;2022-07-29T02:37:53;96451.28;;;16.54;100.00
33185;BME280;19550;42.872;25.494;2022-07-29T02:40:39;96452.25;;;16.46;100.00
33185;BME280;19550;42.872;25.494;2022-07-29T02:43:08;96457.09;;;16.34;100.00
33185;BME280;19550;42.872;25.494;2022-07-29T02:45:36;96452.66;;;16.33;100.00
33185;BME280;19550;42.872;25.494;2022-07-29T02:48:09;96457.13;;;16.21;100.00
33185;BME280;19550;42.872;25.494;2022-07-29T02:50:44;96456.06;;;16.26;100.00
33185;BME280;19550;42.872;25.494;2022-07-29T02:53:17;96453.97;;;16.23;100.00
33185;BME280;19550;42.872;25.494;2022-07-29T02:55:48;96461.81;;;16.17;100.00
33185;BME280;19550;42.872;25.494;2022-07-29T02:58:24;96459.47;;;16.19;100.00
33185;BME280;19550;42.872;25.494;2022-07-29T03:00:53;96452.53;;;16.29;100.00
33185;BME280;19550;42.872;25.494;2022-07-29T03:03:25;96455.59;;;16.24;100.00
33185;BME280;19550;42.872;25.494;2022-07-29T03:05:55;96459.81;;;16.18;100.00
33185;BME280;19550;42.872;25.494;2022-07-29T03:08:24;96462.88;;;16.13;100.00
33185;BME280;19550;42.872;25.494;2022-07-29T03:10:51;96464.03;;;16.12;100.00
33185;BME280;19550;42.872;25.494;2022-07-29T03:13:19;96466.00;;;16.11;100.00
33185;BME280;19550;42.872;25.494;2022-07-29T03:15:47;96466.84;;;16.12;100.00
33185;BME280;19550;42.872;25.494;2022-07-29T03:18:14;96473.47;;;16.19;100.00
33185;BME280;19550;42.872;25.494;2022-07-29T03:20:43;96483.81;;;16.19;100.00
33185;BME280;19550;42.872;25.494;2022-07-29T03:23:10;96477.19;;;16.11;100.00
33185;BME280;19550;42.872;25.494;2022-07-29T03:25:37;96493.28;;;16.14;100.00
33185;BME280;19550;42.872;25.494;2022-07-29T03:28:04;96483.16;;;16.10;100.00
33185;BME280;19550;42.872;25.494;2022-07-29T03:30:31;96485.13;;;16.09;100.00
33185;BME280;19550;42.872;25.494;2022-07-29T03:32:58;96483.63;;;16.12;100.00
33185;BME280;19550;42.872;25.494;2022-07-29T03:35:26;96485.34;;;16.16;100.00
33185;BME280;19550;42.872;25.494;2022-07-29T03:37:55;96498.03;;;16.26;100.00
33185;BME280;19550;42.872;25.494;2022-07-29T03:40:24;96499.31;;;16.28;100.00
33185;BME280;19550;42.872;25.494;2022-07-29T03:42:53;96497.06;;;16.34;100.00
33185;BME280;19550;42.872;25.494;2022-07-29T03:45:22;96500.91;;;16.29;100.00
33185;BME280;19550;42.872;25.494;2022-07-29T03:47:55;96498.94;;;16.30;100.00
33185;BME280;19550;42.872;25.494;2022-07-29T03:50:24;96495.53;;;16.37;100.00
33185;BME280;19550;42.872;25.494;2022-07-29T03:52:51;96500.63;;;16.47;100.00
33185;BME280;19550;42.872;25.494;2022-07-29T03:55:19;96506.03;;;16.55;100.00
33185;BME280;19550;42.872;25.494;2022-07-29T03:57:48;96507.09;;;16.63;100.00
33185;BME280;19550;42.872;25.494;2022-07-29T04:00:16;96508.13;;;16.71;100.00
33185;BME280;19550;42.872;25.494;2022-07-29T04:02:44;96510.59;;;16.88;100.00
33185;BME280;19550;42.872;25.494;2022-07-29T04:05:14;96507.06;;;16.91;100.00
33185;BME280;19550;42.872;25.494;2022-07-29T04:07:43;96508.91;;;16.99;100.00
33185;BME280;19550;42.872;25.494;2022-07-29T04:10:10;96513.28;;;16.84;100.00
33185;BME280;19550;42.872;25.494;2022-07-29T04:12:39;96508.03;;;16.83;100.00
33185;BME280;19550;42.872;25.494;2022-07-29T04:15:07;96516.56;;;16.86;100.00
33185;BME280;19550;42.872;25.494;2022-07-29T04:17:34;96510.34;;;16.93;100.00
33185;BME280;19550;42.872;25.494;2022-07-29T04:20:01;96505.94;;;17.23;100.00
33185;BME280;19550;42.872;25.494;2022-07-29T04:22:29;96507.28;;;17.29;100.00
33185;BME280;19550;42.872;25.494;2022-07-29T04:24:56;96514.34;;;17.39;100.00
33185;BME280;19550;42.872;25.494;2022-07-29T04:27:23;96510.38;;;17.40;100.00
33185;BME280;19550;42.872;25.494;2022-07-29T04:29:52;96524.19;;;17.48;100.00
33185;BME280;19550;42.872;25.494;2022-07-29T04:32:19;96525.38;;;17.63;100.00
33185;BME280;19550;42.872;25.494;2022-07-29T04:34:46;96521.88;;;17.66;100.00
33185;BME280;19550;42.872;25.494;2022-07-29T04:37:13;96521.94;;;17.54;100.00
33185;BME280;19550;42.872;25.494;2022-07-29T04:39:40;96525.28;;;17.60;100.00
33185;BME280;19550;42.872;25.494;2022-07-29T04:42:07;96521.19;;;17.57;100.00
33185;BME280;19550;42.872;25.494;2022-07-29T04:44:34;96518.31;;;17.54;100.00
33185;BME280;19550;42.872;25.494;2022-07-29T04:47:03;96523.19;;;17.57;100.00
33185;BME280;19550;42.872;25.494;2022-07-29T04:49:30;96523.75;;;17.62;100.00
33185;BME280;19550;42.872;25.494;2022-07-29T04:51:57;96520.47;;;17.60;100.00
33185;BME280;19550;42.872;25.494;2022-07-29T04:54:24;96525.13;;;17.68;100.00
33185;BME280;19550;42.872;25.494;2022-07-29T04:56:51;96522.22;;;17.80;100.00
33185;BME280;19550;42.872;25.494;2022-07-29T04:59:18;96521.91;;;17.85;100.00
33185;BME280;19550;42.872;25.494;2022-07-29T05:01:45;96523.44;;;17.99;100.00
33185;BME280;19550;42.872;25.494;2022-07-29T05:04:14;96524.22;;;18.15;100.00
33185;BME280;19550;42.872;25.494;2022-07-29T05:06:41;96529.31;;;18.28;100.00
33185;BME280;19550;42.872;25.494;2022-07-29T05:09:08;96534.97;;;18.48;100.00
33185;BME280;19550;42.872;25.494;2022-07-29T05:11:35;96532.47;;;18.62;100.00
33185;BME280;19550;42.872;25.494;2022-07-29T05:14:02;96531.81;;;18.88;100.00
33185;BME280;19550;42.872;25.494;2022-07-29T05:16:29;96536.00;;;18.97;100.00
33185;BME280;19550;42.872;25.494;2022-07-29T05:18:56;96536.78;;;19.17;100.00
33185;BME280;19550;42.872;25.494;2022-07-29T05:21:24;96531.41;;;19.31;100.00
33185;BME280;19550;42.872;25.494;2022-07-29T05:23:51;96543.22;;;19.40;100.00
33185;BME280;19550;42.872;25.494;2022-07-29T05:26:18;96541.38;;;19.71;100.00
33185;BME280;19550;42.872;25.494;2022-07-29T05:28:45;96549.22;;;19.84;100.00
33185;BME280;19550;42.872;25.494;2022-07-29T05:31:12;96551.94;;;20.04;100.00
33185;BME280;19550;42.872;25.494;2022-07-29T05:33:40;96551.91;;;20.27;100.00
33185;BME280;19550;42.872;25.494;2022-07-29T05:36:07;96551.69;;;20.39;100.00
33185;BME280;19550;42.872;25.494;2022-07-29T05:38:36;96551.81;;;20.46;100.00
33185;BME280;19550;42.872;25.494;2022-07-29T05:41:03;96545.88;;;20.54;100.00
33185;BME280;19550;42.872;25.494;2022-07-29T05:43:30;96547.91;;;20.54;100.00
33185;BME280;19550;42.872;25.494;2022-07-29T05:45:57;96535.94;;;20.64;100.00
33185;BME280;19550;42.872;25.494;2022-07-29T05:48:24;96541.16;;;20.95;100.00
33185;BME280;19550;42.872;25.494;2022-07-29T05:50:52;96541.38;;;21.13;100.00
33185;BME280;19550;42.872;25.494;2022-07-29T05:53:19;96541.88;;;21.19;100.00
33185;BME280;19550;42.872;25.494;2022-07-29T05:55:47;96538.09;;;21.45;100.00
33185;BME280;19550;42.872;25.494;2022-07-29T05:58:14;96542.94;;;21.44;100.00
33185;BME280;19550;42.872;25.494;2022-07-29T06:00:42;96539.88;;;21.60;100.00
33185;BME280;19550;42.872;25.494;2022-07-29T06:03:09;96544.66;;;21.56;100.00
33185;BME280;19550;42.872;25.494;2022-07-29T06:05:36;96550.47;;;21.73;100.00
33185;BME280;19550;42.872;25.494;2022-07-29T06:08:03;96534.31;;;21.74;100.00
33185;BME280;19550;42.872;25.494;2022-07-29T06:10:32;96542.97;;;21.95;100.00
33185;BME280;19550;42.872;25.494;2022-07-29T06:13:01;96541.06;;;22.03;100.00
33185;BME280;19550;42.872;25.494;2022-07-29T06:15:28;96538.28;;;22.10;100.00
33185;BME280;19550;42.872;25.494;2022-07-29T06:17:55;96546.06;;;22.27;100.00
33185;BME280;19550;42.872;25.494;2022-07-29T06:20:22;96534.16;;;22.62;100.00
33185;BME280;19550;42.872;25.494;2022-07-29T06:22:49;96538.22;;;22.65;100.00
33185;BME280;19550;42.872;25.494;2022-07-29T06:25:16;96542.41;;;22.88;100.00
33185;BME280;19550;42.872;25.494;2022-07-29T06:27:43;96538.44;;;23.00;100.00
33185;BME280;19550;42.872;25.494;2022-07-29T06:30:12;96538.91;;;23.20;99.93
33185;BME280;19550;42.872;25.494;2022-07-29T06:32:40;96532.94;;;23.53;99.25
33185;BME280;19550;42.872;25.494;2022-07-29T06:35:07;96534.56;;;23.72;98.64
33185;BME280;19550;42.872;25.494;2022-07-29T06:37:34;96540.63;;;23.60;97.75
33185;BME280;19550;42.872;25.494;2022-07-29T06:40:01;96543.06;;;23.83;95.90
33185;BME280;19550;42.872;25.494;2022-07-29T06:42:47;96546.28;;;24.16;94.60
33185;BME280;19550;42.872;25.494;2022-07-29T06:45:16;96543.47;;;24.38;94.08
33185;BME280;19550;42.872;25.494;2022-07-29T06:47:43;96542.22;;;24.49;94.22
33185;BME280;19550;42.872;25.494;2022-07-29T06:50:10;96540.97;;;24.68;91.13
33185;BME280;19550;42.872;25.494;2022-07-29T06:52:38;96540.94;;;24.79;90.32
33185;BME280;19550;42.872;25.494;2022-07-29T06:55:07;96546.56;;;25.00;86.94
33185;BME280;19550;42.872;25.494;2022-07-29T06:57:34;96543.28;;;25.12;86.33
33185;BME280;19550;42.872;25.494;2022-07-29T07:00:01;96548.00;;;25.37;85.02
33185;BME280;19550;42.872;25.494;2022-07-29T07:02:31;96545.09;;;25.58;84.09
33185;BME280;19550;42.872;25.494;2022-07-29T07:04:58;96542.09;;;25.79;84.03
33185;BME280;19550;42.872;25.494;2022-07-29T07:07:25;96538.31;;;25.96;87.44
33185;BME280;19550;42.872;25.494;2022-07-29T07:09:52;96542.41;;;25.92;91.56
33185;BME280;19550;42.872;25.494;2022-07-29T07:12:19;96539.88;;;26.01;90.15
33185;BME280;19550;42.872;25.494;2022-07-29T07:14:46;96534.41;;;26.28;93.37
33185;BME280;19550;42.872;25.494;2022-07-29T07:17:13;96543.41;;;26.19;84.61
33185;BME280;19550;42.872;25.494;2022-07-29T07:19:42;96541.72;;;26.70;69.91
33185;BME280;19550;42.872;25.494;2022-07-29T07:22:10;96538.75;;;27.14;61.16
33185;BME280;19550;42.872;25.494;2022-07-29T07:24:37;96534.78;;;27.39;63.87
33185;BME280;19550;42.872;25.494;2022-07-29T07:27:04;96531.28;;;27.58;57.60
33185;BME280;19550;42.872;25.494;2022-07-29T07:29:31;96531.34;;;27.81;55.85
33185;BME280;19550;42.872;25.494;2022-07-29T07:31:58;96528.25;;;27.95;55.02
33185;BME280;19550;42.872;25.494;2022-07-29T07:34:25;96533.34;;;28.07;55.37
33185;BME280;19550;42.872;25.494;2022-07-29T07:36:53;96525.84;;;28.21;53.85
33185;BME280;19550;42.872;25.494;2022-07-29T07:39:20;96527.44;;;28.22;52.17
33185;BME280;19550;42.872;25.494;2022-07-29T07:41:47;96531.72;;;28.33;50.86
33185;BME280;19550;42.872;25.494;2022-07-29T07:44:14;96534.09;;;28.38;51.53
33185;BME280;19550;42.872;25.494;2022-07-29T07:46:42;96531.47;;;28.48;51.08
33185;BME280;19550;42.872;25.494;2022-07-29T07:49:10;96531.59;;;28.64;49.94
33185;BME280;19550;42.872;25.494;2022-07-29T07:51:38;96527.22;;;28.79;50.66
33185;BME280;19550;42.872;25.494;2022-07-29T07:54:06;96522.44;;;28.96;48.82
33185;BME280;19550;42.872;25.494;2022-07-29T07:56:34;96527.25;;;28.99;48.86
33185;BME280;19550;42.872;25.494;2022-07-29T07:59:02;96528.13;;;28.96;48.76
33185;BME280;19550;42.872;25.494;2022-07-29T08:01:29;96529.00;;;28.93;49.64
33185;BME280;19550;42.872;25.494;2022-07-29T08:03:56;96523.75;;;29.11;47.13
33185;BME280;19550;42.872;25.494;2022-07-29T08:06:23;96534.09;;;29.05;48.18
33185;BME280;19550;42.872;25.494;2022-07-29T08:08:50;96518.19;;;29.04;48.03
33185;BME280;19550;42.872;25.494;2022-07-29T08:11:20;96522.00;;;29.17;49.39
33185;BME280;19550;42.872;25.494;2022-07-29T08:13:46;96520.59;;;29.45;49.96
33185;BME280;19550;42.872;25.494;2022-07-29T08:16:13;96530.38;;;29.63;47.76
33185;BME280;19550;42.872;25.494;2022-07-29T08:18:42;96522.03;;;29.53;46.94
33185;BME280;19550;42.872;25.494;2022-07-29T08:21:09;96518.69;;;29.58;47.46
33185;BME280;19550;42.872;25.494;2022-07-29T08:23:36;96524.47;;;29.54;46.28
33185;BME280;19550;42.872;25.494;2022-07-29T08:26:05;96524.03;;;29.56;47.78
33185;BME280;19550;42.872;25.494;2022-07-29T08:28:37;96527.16;;;29.61;47.06
33185;BME280;19550;42.872;25.494;2022-07-29T08:31:05;96527.69;;;29.73;47.81
33185;BME280;19550;42.872;25.494;2022-07-29T08:33:32;96525.66;;;29.73;45.38
33185;BME280;19550;42.872;25.494;2022-07-29T08:35:59;96514.88;;;29.81;45.98
33185;BME280;19550;42.872;25.494;2022-07-29T08:38:26;96519.47;;;29.94;46.12
33185;BME280;19550;42.872;25.494;2022-07-29T08:40:54;96519.19;;;30.05;47.17
33185;BME280;19550;42.872;25.494;2022-07-29T08:43:21;96526.72;;;30.15;46.56
33185;BME280;19550;42.872;25.494;2022-07-29T08:45:50;96512.88;;;29.97;46.13
33185;BME280;19550;42.872;25.494;2022-07-29T08:48:18;96522.00;;;30.25;45.28
33185;BME280;19550;42.872;25.494;2022-07-29T08:50:47;96516.97;;;30.29;44.31
33185;BME280;19550;42.872;25.494;2022-07-29T08:53:17;96513.22;;;30.16;43.38
33185;BME280;19550;42.872;25.494;2022-07-29T08:55:46;96522.34;;;30.11;45.99
33185;BME280;19550;42.872;25.494;2022-07-29T08:58:14;96522.97;;;30.18;44.82
33185;BME280;19550;42.872;25.494;2022-07-29T09:00:43;96523.75;;;30.35;44.20
33185;BME280;19550;42.872;25.494;2022-07-29T09:03:17;96516.59;;;30.59;44.96
33185;BME280;19550;42.872;25.494;2022-07-29T09:05:46;96519.03;;;30.45;41.85
33185;BME280;19550;42.872;25.494;2022-07-29T09:08:13;96500.69;;;30.42;42.25
33185;BME280;19550;42.872;25.494;2022-07-29T09:10:41;96513.56;;;30.66;42.26
33185;BME280;19550;42.872;25.494;2022-07-29T09:13:08;96510.75;;;30.79;43.84
33185;BME280;19550;42.872;25.494;2022-07-29T09:15:35;96506.16;;;30.98;42.14
33185;BME280;19550;42.872;25.494;2022-07-29T09:18:02;96507.06;;;31.24;40.87
33185;BME280;19550;42.872;25.494;2022-07-29T09:20:31;96508.66;;;31.25;42.07
33185;BME280;19550;42.872;25.494;2022-07-29T09:23:12;96511.25;;;31.19;40.12
33185;BME280;19550;42.872;25.494;2022-07-29T09:25:40;96507.66;;;31.02;40.66
33185;BME280;19550;42.872;25.494;2022-07-29T09:28:08;96510.72;;;30.95;39.47
33185;BME280;19550;42.872;25.494;2022-07-29T09:30:36;96497.28;;;31.21;39.85
33185;BME280;19550;42.872;25.494;2022-07-29T09:33:16;96506.16;;;31.52;39.02
33185;BME280;19550;42.872;25.494;2022-07-29T09:35:46;96504.06;;;31.27;38.83
33185;BME280;19550;42.872;25.494;2022-07-29T09:38:24;96503.03;;;31.21;39.10
33185;BME280;19550;42.872;25.494;2022-07-29T09:40:56;96503.56;;;31.57;38.59
33185;BME280;19550;42.872;25.494;2022-07-29T09:43:24;96501.53;;;31.83;37.94
33185;BME280;19550;42.872;25.494;2022-07-29T09:45:51;96499.22;;;31.78;38.07
33185;BME280;19550;42.872;25.494;2022-07-29T09:48:20;96488.69;;;32.01;38.97
33185;BME280;19550;42.872;25.494;2022-07-29T09:50:51;96493.50;;;32.04;37.49
33185;BME280;19550;42.872;25.494;2022-07-29T09:53:31;96490.41;;;32.11;38.18
33185;BME280;19550;42.872;25.494;2022-07-29T09:55:59;96499.47;;;32.09;39.34
33185;BME280;19550;42.872;25.494;2022-07-29T09:58:26;96494.78;;;32.03;40.82
33185;BME280;19550;42.872;25.494;2022-07-29T10:00:55;96487.28;;;32.43;41.87
33185;BME280;19550;42.872;25.494;2022-07-29T10:03:22;96491.28;;;32.46;41.13
33185;BME280;19550;42.872;25.494;2022-07-29T10:06:07;96489.91;;;32.50;41.20
33185;BME280;19550;42.872;25.494;2022-07-29T10:08:35;96493.13;;;32.87;41.71
33185;BME280;19550;42.872;25.494;2022-07-29T10:11:09;96491.34;;;33.02;40.71
33185;BME280;19550;42.872;25.494;2022-07-29T10:13:38;96490.81;;;33.16;39.92
33185;BME280;19550;42.872;25.494;2022-07-29T10:16:05;96493.09;;;33.21;38.33
33185;BME280;19550;42.872;25.494;2022-07-29T10:18:33;96479.56;;;33.52;38.45
33185;BME280;19550;42.872;25.494;2022-07-29T10:21:01;96487.06;;;33.50;38.15
33185;BME280;19550;42.872;25.494;2022-07-29T10:23:30;96485.94;;;33.26;38.47
33185;BME280;19550;42.872;25.494;2022-07-29T10:25:57;96484.63;;;33.05;37.73
33185;BME280;19550;42.872;25.494;2022-07-29T10:28:24;96478.91;;;32.83;39.33
33185;BME280;19550;42.872;25.494;2022-07-29T10:30:52;96481.34;;;33.28;38.85
33185;BME280;19550;42.872;25.494;2022-07-29T10:33:38;96473.69;;;33.56;38.56
33185;BME280;19550;42.872;25.494;2022-07-29T10:36:19;96472.66;;;33.72;37.82
33185;BME280;19550;42.872;25.494;2022-07-29T10:39:00;96476.06;;;33.58;38.99
33185;BME280;19550;42.872;25.494;2022-07-29T10:41:39;96469.75;;;33.41;37.34
33185;BME280;19550;42.872;25.494;2022-07-29T10:44:17;96470.28;;;33.79;38.79
33185;BME280;19550;42.872;25.494;2022-07-29T10:46:45;96464.13;;;33.90;37.58
33185;BME280;19550;42.872;25.494;2022-07-29T10:49:14;96466.38;;;33.95;36.66
33185;BME280;19550;42.872;25.494;2022-07-29T10:51:56;96459.66;;;33.98;35.96
33185;BME280;19550;42.872;25.494;2022-07-29T10:54:49;96449.13;;;34.04;35.89
33185;BME280;19550;42.872;25.494;2022-07-29T10:57:23;96449.22;;;34.22;36.50
33185;BME280;19550;42.872;25.494;2022-07-29T11:00:25;96459.19;;;34.49;35.58
33185;BME280;19550;42.872;25.494;2022-07-29T11:02:53;96449.66;;;34.21;35.17
33185;BME280;19550;42.872;25.494;2022-07-29T11:05:21;96454.50;;;34.24;35.78
33185;BME280;19550;42.872;25.494;2022-07-29T11:08:20;96454.38;;;34.37;36.23
33185;BME280;19550;42.872;25.494;2022-07-29T11:10:51;96451.34;;;34.49;35.20
33185;BME280;19550;42.872;25.494;2022-07-29T11:13:50;96449.75;;;34.48;34.69
33185;BME280;19550;42.872;25.494;2022-07-29T11:16:19;96452.78;;;35.18;34.66
33185;BME280;19550;42.872;25.494;2022-07-29T11:19:18;96452.00;;;34.99;34.67
33185;BME280;19550;42.872;25.494;2022-07-29T11:21:46;96448.34;;;34.98;31.92
33185;BME280;19550;42.872;25.494;2022-07-29T11:24:15;96449.13;;;35.26;33.18
33185;BME280;19550;42.872;25.494;2022-07-29T11:26:44;96452.78;;;35.18;32.23
33185;BME280;19550;42.872;25.494;2022-07-29T11:29:19;96448.94;;;35.48;31.71
33185;BME280;19550;42.872;25.494;2022-07-29T11:31:50;96443.50;;;35.41;31.98
33185;BME280;19550;42.872;25.494;2022-07-29T11:34:24;96435.25;;;35.58;37.70
33185;BME280;19550;42.872;25.494;2022-07-29T11:37:13;96442.97;;;35.70;32.22
33185;BME280;19550;42.872;25.494;2022-07-29T11:39:42;96440.41;;;35.63;33.08
33185;BME280;19550;42.872;25.494;2022-07-29T11:42:39;96433.97;;;35.59;32.79
33185;BME280;19550;42.872;25.494;2022-07-29T11:45:08;96429.16;;;35.65;33.30
33185;BME280;19550;42.872;25.494;2022-07-29T11:47:36;96425.28;;;35.77;33.52
33185;BME280;19550;42.872;25.494;2022-07-29T11:50:06;96414.19;;;36.17;33.84
33185;BME280;19550;42.872;25.494;2022-07-29T11:52:34;96423.03;;;36.38;32.50
33185;BME280;19550;42.872;25.494;2022-07-29T11:55:03;96416.88;;;36.30;31.49
33185;BME280;19550;42.872;25.494;2022-07-29T11:57:31;96420.41;;;36.73;31.31
33185;BME280;19550;42.872;25.494;2022-07-29T11:59:59;96420.78;;;36.42;31.37
33185;BME280;19550;42.872;25.494;2022-07-29T12:02:38;96423.78;;;35.91;33.28
33185;BME280;19550;42.872;25.494;2022-07-29T12:05:08;96407.78;;;36.13;33.69
33185;BME280;19550;42.872;25.494;2022-07-29T12:07:35;96405.25;;;36.39;32.27
33185;BME280;19550;42.872;25.494;2022-07-29T12:10:04;96404.78;;;36.08;32.90
33185;BME280;19550;42.872;25.494;2022-07-29T12:12:31;96389.44;;;36.26;32.72
33185;BME280;19550;42.872;25.494;2022-07-29T12:15:10;96392.06;;;36.62;36.50
33185;BME280;19550;42.872;25.494;2022-07-29T12:17:37;96385.31;;;36.65;32.46
33185;BME280;19550;42.872;25.494;2022-07-29T12:20:06;96386.63;;;37.17;31.72
33185;BME280;19550;42.872;25.494;2022-07-29T12:22:35;96384.34;;;37.36;31.46
33185;BME280;19550;42.872;25.494;2022-07-29T12:25:07;96391.28;;;37.44;31.61
33185;BME280;19550;42.872;25.494;2022-07-29T12:27:34;96389.91;;;37.54;30.74
33185;BME280;19550;42.872;25.494;2022-07-29T12:30:07;96386.75;;;38.02;30.26
33185;BME280;19550;42.872;25.494;2022-07-29T12:32:35;96377.94;;;37.47;32.82
33185;BME280;19550;42.872;25.494;2022-07-29T12:35:05;96379.34;;;37.36;30.38
33185;BME280;19550;42.872;25.494;2022-07-29T12:37:33;96382.25;;;37.36;31.44
33185;BME280;19550;42.872;25.494;2022-07-29T12:40:03;96382.41;;;37.77;31.06
33185;BME280;19550;42.872;25.494;2022-07-29T12:42:30;96376.47;;;36.69;32.26
33185;BME280;19550;42.872;25.494;2022-07-29T12:44:58;96374.09;;;36.82;32.42
33185;BME280;19550;42.872;25.494;2022-07-29T12:47:27;96379.59;;;36.80;31.99
33185;BME280;19550;42.872;25.494;2022-07-29T12:50:08;96368.16;;;36.23;32.31
33185;BME280;19550;42.872;25.494;2022-07-29T12:52:35;96370.81;;;36.50;32.19
33185;BME280;19550;42.872;25.494;2022-07-29T12:55:03;96367.97;;;36.65;31.55
33185;BME280;19550;42.872;25.494;2022-07-29T12:57:31;96363.28;;;37.21;32.73